Flight Track Log - Related Links

Times and Time Zones

All times are in EDT time to prevent confusion due to time zone crossing. See the UPS37 flight status page for this flight to view local times or setup timezone preferences in your user account.

Time Position Orientation Groundspeed Altitude Reporting Facility
EDT Latitude Longitude Course Direction KTS MPH feet Rate Location/Type
Sun 05:17:17 AM -33.9330 151.1690 25° Northeast 2 2  Level FlightAware ADS-B
Sun 05:19:17 AM -33.9340 151.1690 180° South 2 2 73 Level FlightAware ADS-B
Sun 05:22:00 AM -33.6788 150.9336 322° Northwest  Level Estimated
Sun 05:23:00 AM -33.5847 150.8472 323° Northwest  Level Estimated
Sun 05:24:00 AM -33.4906 150.7611 323° Northwest  Level Estimated
Sun 05:25:00 AM -33.3964 150.6752 323° Northwest  Level Estimated
Sun 05:26:00 AM -33.3021 150.5894 323° Northwest  Level Estimated
Sun 05:27:00 AM -33.2078 150.5039 323° Northwest  Level Estimated
Sun 05:28:00 AM -33.1135 150.4185 323° Northwest  Level Estimated
Sun 05:29:00 AM -33.0191 150.3333 323° Northwest  Level Estimated
Sun 05:30:00 AM -32.9246 150.2483 323° Northwest  Level Estimated
Sun 05:31:00 AM -32.8301 150.1634 323° Northwest  Level Estimated
Sun 05:32:00 AM -32.7355 150.0788 323° Northwest  Level Estimated
Sun 05:33:00 AM -32.6408 149.9943 323° Northwest  Level Estimated
Sun 05:34:00 AM -32.5461 149.9100 323° Northwest  Level Estimated
Sun 05:35:00 AM -32.4514 149.8259 323° Northwest  Level Estimated
Sun 05:36:00 AM -32.3565 149.7419 323° Northwest  Level Estimated
Sun 05:36:31 AM -33.9661 151.1801 323° Northwest 151 174 1,400  Level Aus ATC (RADAR)
Sun 05:37:06 AM -33.9897 151.1806 179° South 147 169 2,900 2,123 Climbing Aus ATC (RADAR)
Sun 05:37:36 AM -34.0116 151.1777 179° South 159 183 3,700 732 Climbing Aus ATC (RADAR)
Sun 05:37:47 AM -34.0150 151.1770 179° South 186 214 3,400 1,412 Descending FlightAware ADS-B
Sun 05:38:10 AM -34.0453 151.1796 179° South 211 243 4,500 2,100 Climbing Aus ATC (RADAR)
Sun 05:38:27 AM -34.0600 151.1850 179° South 238 274 4,800 2,063 Climbing FlightAware ADS-B
Sun 05:38:42 AM -34.0770 151.1910 164° South 249 287 5,600 3,067 Climbing FlightAware ADS-B
Sun 05:39:12 AM -34.1120 151.2020 165° South 267 307 7,100 3,200 Climbing FlightAware ADS-B
Sun 05:39:27 AM -34.1300 151.2060 165° South 257 296 8,000 5,333 Climbing FlightAware ADS-B
Sun 05:39:30 AM -34.1377 151.2073 165° South 267 307 8,700 3,360 Climbing Aus ATC (RADAR)
Sun 05:39:52 AM -34.1590 151.1930 200° South 261 300 9,400 2,432 Climbing FlightAware ADS-B
Sun 05:40:07 AM -34.1680 151.1740 240° Southwest 269 310 10,200 3,120 Climbing FlightAware ADS-B
Sun 05:40:17 AM -34.1710 151.1590 256° West 275 316 10,700 3,632 Climbing FlightAware ADS-B
Sun 05:40:45 AM -34.1572 151.1141 256° West 273 314 12,500 3,000 Climbing Aus ATC (RADAR)
Sun 05:40:47 AM -34.1570 151.1150 256° West 300 345 12,200 2,160 Descending FlightAware ADS-B
Sun 05:41:10 AM -34.1275 151.0891 256° West 301 346 13,400 1,867 Climbing Aus ATC (RADAR)
Sun 05:41:32 AM -34.1010 151.0700 256° West 342 394 13,600 1,263 Climbing FlightAware ADS-B
Sun 05:42:07 AM -34.0540 151.0310 325° Northwest 373 429 14,600 2,069 Climbing FlightAware ADS-B
Sun 05:42:30 AM -34.0160 151.0000 325° Northwest 377 434 15,600 1,560 Climbing Aus ATC (RADAR)
Sun 05:42:57 AM -33.9760 150.9710 325° Northwest 419 482 15,900 1,075 Climbing FlightAware ADS-B
Sun 05:43:37 AM -33.9010 150.9320 337° Northwest 454 522 16,800 1,725 Climbing FlightAware ADS-B
Sun 05:44:17 AM -33.8220 150.8930 338° Northwest 469 540 18,200 2,500 Climbing FlightAware ADS-B
Sun 05:44:49 AM -33.7514 150.8554 338° Northwest 457 526 19,800 2,267 Climbing Aus ATC (RADAR)
Sun 05:45:02 AM -33.7310 150.8450 338° Northwest 472 543 19,900 2,167 Climbing FlightAware ADS-B
Sun 05:45:25 AM -33.6788 150.8182 338° Northwest 477 549 21,100 2,250 Climbing Aus ATC (RADAR)
Sun 05:45:42 AM -33.6480 150.8030 338° Northwest 477 549 21,400 2,100 Climbing FlightAware ADS-B
Sun 05:46:05 AM -33.5958 150.7766 338° Northwest 483 556 22,500 1,800 Climbing Aus ATC (RADAR)
Sun 05:46:22 AM -33.5610 150.7660 338° Northwest 495 570 22,600 1,714 Climbing FlightAware ADS-B
Sun 05:46:40 AM -33.5170 150.7526 338° Northwest 499 574 23,500 2,377 Climbing Aus ATC (RADAR)
Sun 05:47:15 AM -33.4368 150.7284 346° North 508 585 24,700 2,400 Climbing Aus ATC (RADAR)
Sun 05:47:45 AM -33.3681 150.7079 346° North 508 585 26,100 2,308 Climbing Aus ATC (RADAR)
Sun 05:48:20 AM -33.2891 150.6842 346° North 504 580 27,200 2,267 Climbing Aus ATC (RADAR)
Sun 05:49:15 AM -33.1643 150.6469 346° North 503 579 29,500 2,560 Climbing Aus ATC (RADAR)
Sun 05:49:35 AM -33.1203 150.6342 346° North 494 568 30,400 2,533 Climbing Aus ATC (RADAR)
Sun 05:50:00 AM -33.0659 150.6177 346° North 487 560 31,400 1,784 Climbing Aus ATC (RADAR)
Sun 05:50:12 AM -33.0510 150.6140 346° North 477 549 31,500 3,176 Climbing FlightAware ADS-B
Sun 05:50:34 AM -32.9919 150.5963 346° North 471 542 33,200 2,418 Climbing Aus ATC (RADAR)
Sun 05:51:19 AM -32.8983 150.5687 346° North 455 524 34,200 1,725 Climbing Aus ATC (RADAR)
Sun 05:51:54 AM -32.8269 150.5481 346° North 444 511 35,500 1,619 Climbing Aus ATC (RADAR)
Sun 05:52:22 AM -32.7720 150.5320 346° North 444 511 35,900 1,371 Climbing FlightAware ADS-B
Sun 05:52:29 AM -32.7570 150.5271 346° North 435 501 36,300 649 Climbing Aus ATC (RADAR)
Sun 05:52:59 AM -32.6966 150.5097 346° North 444 511 36,300  Level Aus ATC (RADAR)
Sun 05:53:34 AM -32.6286 150.4891 346° North 434 499 36,300  Level Aus ATC (RADAR)
Sun 05:54:34 AM -32.5114 150.4554 346° North 435 501 36,300  Level Aus ATC (RADAR)
Sun 05:54:59 AM -32.4625 150.4412 346° North 435 501 36,300 -643 Level Aus ATC (RADAR)
Sun 05:55:02 AM -32.4670 150.4430 346° North 429 494 36,000  Descending FlightAware ADS-B
Sun 05:55:34 AM -32.3931 150.4214 346° North 440 506 36,300 250 Climbing Aus ATC (RADAR)
Sun 05:56:14 AM -32.3137 150.3981 346° North 442 509 36,300  Level Aus ATC (RADAR)
Sun 05:56:49 AM -32.2438 150.3778 346° North 444 511 36,300  Level Aus ATC (RADAR)
Sun 05:57:24 AM -32.1742 150.3573 346° North 444 511 36,300 -474 Level Aus ATC (RADAR)
Sun 05:57:27 AM -32.1700 150.3570 346° North 446 513 36,000 -200 Descending FlightAware ADS-B
Sun 05:57:54 AM -32.1138 150.3396 346° North 447 514 36,200 194 Climbing Aus ATC (RADAR)
Sun 05:58:29 AM -32.0434 150.3198 347° North 448 516 36,200 -279 Level Aus ATC (RADAR)
Sun 05:58:37 AM -32.0300 150.3160 347° North 445 512 36,000  Descending FlightAware ADS-B
Sun 05:59:23 AM -31.9333 150.2883 347° North 441 507 36,200  Climbing Aus ATC (RADAR)
Sun 05:59:27 AM -31.9360 150.2890 347° North 446 513 36,000  Descending FlightAware ADS-B
Sun 05:59:44 AM -31.8930 150.2760 347° North 447 514 36,200  Climbing Aus ATC (RADAR)
Sun 06:00:07 AM -31.8570 150.2660 347° North 447 514 36,000  Descending FlightAware ADS-B
Sun 06:00:09 AM -31.8428 150.2621 347° North 442 509 36,200 324 Climbing Aus ATC (RADAR)
Sun 06:00:44 AM -31.7724 150.2416 347° North 447 514 36,200 -226 Level Aus ATC (RADAR)
Sun 06:01:02 AM -31.7440 150.2340 347° North 447 514 36,000  Descending FlightAware ADS-B
Sun 06:01:24 AM -31.6917 150.2183 347° North 449 517 36,200  Climbing Aus ATC (RADAR)
Sun 06:01:47 AM -31.6550 150.2080 347° North 446 513 36,000 -176 Descending FlightAware ADS-B
Sun 06:02:32 AM -31.5630 150.1820 346° North 447 514 36,000 234 Level FlightAware ADS-B
Sun 06:03:04 AM -31.4901 150.1607 346° North 448 516 36,300  Climbing Aus ATC (RADAR)
Sun 06:03:12 AM -31.4820 150.1590 346° North 448 516 36,000  Descending FlightAware ADS-B
Sun 06:03:39 AM -31.4193 150.1406 346° North 450 518 36,300  Climbing Aus ATC (RADAR)
Sun 06:03:57 AM -31.3920 150.1330 346° North 447 514 36,000 -310 Descending FlightAware ADS-B
Sun 06:04:37 AM -31.3110 150.1100 346° North 447 514 36,000 182 Level FlightAware ADS-B
Sun 06:05:03 AM -31.2492 150.0922 346° North 443 510 36,200  Climbing Aus ATC (RADAR)
Sun 06:05:17 AM -31.2340 150.0880 346° North 447 514 36,000 -222 Descending FlightAware ADS-B
Sun 06:05:57 AM -31.1500 150.0640 346° North 445 512 36,000  Level FlightAware ADS-B
Sun 06:06:42 AM -31.0600 150.0390 347° North 446 513 36,000 148 Level FlightAware ADS-B
Sun 06:07:18 AM -30.9773 150.0151 347° North 446 513 36,200  Climbing Aus ATC (RADAR)
Sun 06:07:22 AM -30.9800 150.0160 347° North 445 512 36,000  Descending FlightAware ADS-B
Sun 06:07:53 AM -30.9071 149.9952 347° North 446 513 36,200  Climbing Aus ATC (RADAR)
Sun 06:08:07 AM -30.8900 149.9910 347° North 445 512 36,000  Descending FlightAware ADS-B
Sun 06:08:23 AM -30.8467 149.9783 347° North 447 514 36,200 235 Climbing Aus ATC (RADAR)
Sun 06:08:58 AM -30.7770 149.9583 346° North 445 512 36,200 -308 Level Aus ATC (RADAR)
Sun 06:09:02 AM -30.7800 149.9590 346° North 444 511 36,000 -273 Descending FlightAware ADS-B
Sun 06:09:42 AM -30.7120 149.9390 346° North 444 511 36,000 156 Level FlightAware ADS-B
Sun 06:10:19 AM -30.6169 149.9144 346° North 443 510 36,200  Climbing Aus ATC (RADAR)
Sun 06:10:22 AM -30.6440 149.9200 346° North 444 511 36,000 176 Descending FlightAware ADS-B
Sun 06:10:53 AM -30.5483 149.8953 346° North 436 502 36,300  Climbing Aus ATC (RADAR)
Sun 06:11:02 AM -30.5770 149.9000 346° North 444 511 36,000  Descending FlightAware ADS-B
Sun 06:11:33 AM -30.4681 149.8726 346° North 440 506 36,300  Climbing Aus ATC (RADAR)
Sun 06:11:42 AM -30.5090 149.8810 346° North 444 511 36,000 -171 Descending FlightAware ADS-B
Sun 06:12:08 AM -30.3988 149.8532 346° North 440 506 36,200  Climbing Aus ATC (RADAR)
Sun 06:12:32 AM -30.4240 149.8560 346° North 444 511 36,000 -188 Descending FlightAware ADS-B
Sun 06:13:12 AM -30.3560 149.8360 346° North 444 511 36,000 150 Level FlightAware ADS-B
Sun 06:13:52 AM -30.2061 149.7669 346° North 416 479 36,200  Climbing Aus ATC (RADAR)
Sun 06:13:52 AM -30.2890 149.8170 346° North 444 511 36,000 -300 Descending FlightAware ADS-B
Sun 06:14:32 AM -30.2210 149.7970 346° North 444 511 36,000 267 Level FlightAware ADS-B
Sun 06:14:37 AM -30.1265 149.7235 346° North 417 480 36,200 333 Climbing Aus ATC (RADAR)
Sun 06:15:08 AM -30.0737 149.6944 346° North 417 480 36,200 -343 Level Aus ATC (RADAR)
Sun 06:15:12 AM -30.1530 149.7780 346° North 444 511 36,000  Descending FlightAware ADS-B
Sun 06:15:42 AM -30.0108 149.6608 346° North 423 487 36,200  Climbing Aus ATC (RADAR)
Sun 06:16:02 AM -30.0680 149.7530 346° North 444 511 36,000  Descending FlightAware ADS-B
Sun 06:16:17 AM -29.9507 149.6265 346° North 416 479 36,200  Climbing Aus ATC (RADAR)
Sun 06:16:42 AM -30.0010 149.7340 346° North 444 511 36,000  Descending FlightAware ADS-B
Sun 06:17:22 AM -29.8363 149.5633 346° North 417 480 36,200  Climbing Aus ATC (RADAR)
Sun 06:17:22 AM -29.9330 149.7140 346° North 444 511 36,000  Descending FlightAware ADS-B
Sun 06:17:56 AM -29.7749 149.5296 346° North 416 479 36,200  Climbing Aus ATC (RADAR)
Sun 06:18:02 AM -29.8650 149.6950 346° North 444 511 36,000 -387 Descending FlightAware ADS-B
Sun 06:18:27 AM -29.7194 149.5020 346° North 422 486 36,000 300 Level Aus ATC (RADAR)
Sun 06:19:02 AM -29.6607 149.4660 332° Northwest 417 480 36,300  Climbing Aus ATC (RADAR)
Sun 06:19:57 AM -29.5609 149.4153 336° Northwest 421 484 36,000 -225 Descending Aus ATC (RADAR)
Sun 06:20:22 AM -29.5168 149.3914 335° Northwest 422 486 36,000  Level Aus ATC (RADAR)
Sun 06:20:57 AM -29.4548 149.3580 335° Northwest 422 486 36,000  Level Aus ATC (RADAR)
Sun 06:21:37 AM -29.3844 149.3193 334° Northwest 423 487 36,000  Level Aus ATC (RADAR)
Sun 06:22:12 AM -29.3237 149.2840 333° Northwest 421 484 36,000  Level Aus ATC (RADAR)
Sun 06:22:47 AM -29.2626 149.2498 334° Northwest 421 484 36,000  Level Aus ATC (RADAR)
Sun 06:23:17 AM -29.2093 149.2214 335° Northwest 422 486 36,000  Level Aus ATC (RADAR)
Sun 06:23:52 AM -29.1480 149.1873 334° Northwest 421 484 36,000  Level Aus ATC (RADAR)
Sun 06:24:37 AM -29.0687 149.1438 334° Northwest 423 487 36,000  Level Aus ATC (RADAR)
Sun 06:25:12 AM -29.0064 149.1106 335° Northwest 424 488 36,000  Level Aus ATC (RADAR)
Sun 06:25:46 AM -28.9441 149.0773 335° Northwest 424 488 36,000 143 Level Aus ATC (RADAR)
Sun 06:26:36 AM -28.8562 149.0292 334° Northwest 420 483 36,200  Climbing Aus ATC (RADAR)
Sun 06:26:56 AM -28.8196 149.0108 336° Northwest 425 489 36,000 -218 Descending Aus ATC (RADAR)
Sun 06:27:31 AM -28.7571 148.9775 335° Northwest 425 489 36,000  Level Aus ATC (RADAR)
Sun 06:28:16 AM -28.6767 148.9344 335° Northwest 426 490 36,000  Level Aus ATC (RADAR)
Sun 06:28:51 AM -28.6140 148.9009 335° Northwest 427 491 36,000  Level Aus ATC (RADAR)
Sun 06:29:26 AM -28.5511 148.8673 335° Northwest 428 493 36,000 121 Level Aus ATC (RADAR)
Sun 06:30:30 AM -28.4354 148.8037 334° Northwest 427 491 36,200  Climbing Aus ATC (RADAR)
Sun 06:30:51 AM -28.3982 148.7840 335° Northwest 430 495 36,000 -107 Descending Aus ATC (RADAR)
Sun 06:31:26 AM -28.3349 148.7500 335° Northwest 431 496 36,100 75 Climbing Aus ATC (RADAR)
Sun 06:32:11 AM -28.2534 148.7070 335° Northwest 432 497 36,100 76 Level Aus ATC (RADAR)
Sun 06:32:45 AM -28.1912 148.6737 335° Northwest 429 494 36,200 -92 Climbing Aus ATC (RADAR)
Sun 06:33:16 AM -28.1341 148.6460 337° Northwest 434 499 36,000 -182 Descending Aus ATC (RADAR)
Sun 06:33:51 AM -28.0703 148.6120 335° Northwest 436 502 36,000 188 Level Aus ATC (RADAR)
Sun 06:34:20 AM -28.0177 148.5819 333° Northwest 433 498 36,200 135 Climbing Aus ATC (RADAR)
Sun 06:35:20 AM -27.9122 148.5166 331° Northwest 429 494 36,200  Level Aus ATC (RADAR)
Sun 06:35:45 AM -27.8706 148.4899 330° Northwest 420 483 36,200  Level Aus ATC (RADAR)
Sun 06:36:15 AM -27.8200 148.4581 331° Northwest 417 480 36,200  Level Aus ATC (RADAR)
Sun 06:37:00 AM -27.7419 148.4109 332° Northwest 420 483 36,200  Level Aus ATC (RADAR)
Sun 06:37:35 AM -27.6792 148.3740 332° Northwest 426 490 36,200  Level Aus ATC (RADAR)
Sun 06:38:10 AM -27.6167 148.3367 332° Northwest 431 496 36,200  Level Aus ATC (RADAR)
Sun 06:38:40 AM -27.5636 148.3052 332° Northwest 430 495 36,200  Level Aus ATC (RADAR)
Sun 06:39:15 AM -27.5016 148.2683 332° Northwest 430 495 36,200  Level Aus ATC (RADAR)
Sun 06:40:05 AM -27.4130 148.2159 332° Northwest 431 496 36,200  Level Aus ATC (RADAR)
Sun 06:40:25 AM -27.3778 148.1951 332° Northwest 429 494 36,200  Level Aus ATC (RADAR)
Sun 06:40:50 AM -27.3278 148.1690 335° Northwest 438 504 36,200  Level Aus ATC (RADAR)
Sun 06:41:25 AM -27.2678 148.1337 332° Northwest 423 487 36,200  Level Aus ATC (RADAR)
Sun 06:42:04 AM -27.1979 148.0925 332° Northwest 424 488 36,200  Level Aus ATC (RADAR)
Sun 06:42:39 AM -27.1361 148.0567 333° Northwest 426 490 36,200  Level Aus ATC (RADAR)
Sun 06:43:14 AM -27.0748 148.0209 333° Northwest 426 490 36,200  Level Aus ATC (RADAR)
Sun 06:43:44 AM -27.0225 147.9898 332° Northwest 425 489 36,200  Level Aus ATC (RADAR)
Sun 06:44:19 AM -26.9613 147.9543 333° Northwest 425 489 36,200  Level Aus ATC (RADAR)
Sun 06:45:04 AM -26.8827 147.9080 332° Northwest 425 489 36,200  Level Aus ATC (RADAR)
Sun 06:45:39 AM -26.8215 147.8723 333° Northwest 424 488 36,200  Level Aus ATC (RADAR)
Sun 06:46:14 AM -26.7599 147.8366 333° Northwest 426 490 36,200  Level Aus ATC (RADAR)
Sun 06:46:49 AM -26.6992 147.8011 332° Northwest 423 487 36,200  Level Aus ATC (RADAR)
Sun 06:47:19 AM -26.6472 147.7702 332° Northwest 423 487 36,200  Level Aus ATC (RADAR)
Sun 06:47:54 AM -26.5857 147.7349 333° Northwest 425 489 36,200  Level Aus ATC (RADAR)
Sun 06:48:29 AM -26.5245 147.6991 332° Northwest 425 489 36,200  Level Aus ATC (RADAR)
Sun 06:48:59 AM -26.4722 147.6685 332° Northwest 424 488 36,200  Level Aus ATC (RADAR)
Sun 06:49:34 AM -26.4106 147.6334 333° Northwest 424 488 36,200  Level Aus ATC (RADAR)
Sun 06:50:24 AM -26.3231 147.5827 333° Northwest 425 489 36,200  Level Aus ATC (RADAR)
Sun 06:50:49 AM -26.2793 147.5575 333° Northwest 425 489 36,200  Level Aus ATC (RADAR)
Sun 06:51:19 AM -26.2265 147.5268 332° Northwest 424 488 36,200 -207 Level Aus ATC (RADAR)
Sun 06:51:47 AM -26.2040 147.5140 332° Northwest 425 489 36,000  Descending FlightAware ADS-B
Sun 06:52:04 AM -26.1478 147.4815 333° Northwest 424 488 36,200 324 Climbing Aus ATC (RADAR)
Sun 06:52:24 AM -26.1129 147.4612 332° Northwest 424 488 36,200 -522 Level Aus ATC (RADAR)
Sun 06:52:27 AM -26.1450 147.4790 332° Northwest 425 489 36,000  Descending FlightAware ADS-B
Sun 06:52:59 AM -26.0536 147.4270 332° Northwest 414 476 36,200  Climbing Aus ATC (RADAR)
Sun 06:53:12 AM -26.0540 147.4270 332° Northwest 424 488 36,000  Descending FlightAware ADS-B
Sun 06:53:39 AM -25.9841 147.3875 332° Northwest 418 481 36,200  Climbing Aus ATC (RADAR)
Sun 06:53:57 AM -25.9810 147.3850 332° Northwest 424 488 36,000  Descending FlightAware ADS-B
Sun 06:54:13 AM -25.9199 147.3501 332° Northwest 426 490 36,200  Climbing Aus ATC (RADAR)
Sun 06:54:37 AM -25.9230 147.3500 332° Northwest 424 488 36,000 -188 Descending FlightAware ADS-B
Sun 06:55:17 AM -25.8640 147.3150 332° Northwest 424 488 36,000 107 Level FlightAware ADS-B
Sun 06:55:33 AM -25.7822 147.2716 332° Northwest 422 486 36,100  Climbing Aus ATC (RADAR)
Sun 06:55:57 AM -25.8050 147.2800 333° Northwest 424 488 36,000  Descending FlightAware ADS-B
Sun 06:55:58 AM -25.7374 147.2460 333° Northwest 426 490 36,100 167 Climbing Aus ATC (RADAR)
Sun 06:56:33 AM -25.6744 147.2102 333° Northwest 430 495 36,100 -154 Level Aus ATC (RADAR)
Sun 06:56:37 AM -25.7460 147.2450 333° Northwest 424 488 36,000  Descending FlightAware ADS-B
Sun 06:57:13 AM -25.6026 147.1694 333° Northwest 433 498 36,100  Climbing Aus ATC (RADAR)
Sun 06:57:27 AM -25.6720 147.2020 333° Northwest 424 488 36,000 -111 Descending FlightAware ADS-B
Sun 06:58:07 AM -25.6130 147.1670 332° Northwest 424 488 36,000  Level FlightAware ADS-B
Sun 06:58:47 AM -25.4770 147.0980 335° Northwest 425 489 36,000 85 Level FlightAware ADS-B
Sun 06:59:18 AM -25.3836 147.0449 335° Northwest 425 489 36,100  Climbing Aus ATC (RADAR)
Sun 06:59:32 AM -25.4050 147.0550 335° Northwest 425 489 36,000  Descending FlightAware ADS-B
Sun 06:59:53 AM -25.3230 147.0106 335° Northwest 423 487 36,100  Climbing Aus ATC (RADAR)
Sun 07:00:12 AM -25.3460 147.0200 335° Northwest 425 489 36,000  Descending FlightAware ADS-B
Sun 07:00:43 AM -25.2353 146.9607 335° Northwest 424 488 36,100  Climbing Aus ATC (RADAR)
Sun 07:00:52 AM -25.2870 146.9860 333° Northwest 425 489 36,000  Descending FlightAware ADS-B
Sun 07:00:58 AM -25.2093 146.9461 333° Northwest 424 488 36,100 167 Climbing Aus ATC (RADAR)
Sun 07:01:28 AM -25.1568 146.9164 333° Northwest 424 488 36,100 -176 Level Aus ATC (RADAR)
Sun 07:01:32 AM -25.2280 146.9510 333° Northwest 425 489 36,000  Descending FlightAware ADS-B
Sun 07:02:08 AM -25.0863 146.8766 333° Northwest 425 489 36,100  Climbing Aus ATC (RADAR)
Sun 07:02:22 AM -25.1540 146.9070 333° Northwest 425 489 36,000 -111 Descending FlightAware ADS-B
Sun 07:03:02 AM -25.0950 146.8730 332° Northwest 425 489 36,000  Level FlightAware ADS-B
Sun 07:03:42 AM -25.0360 146.8380 332° Northwest 425 489 36,000 86 Level FlightAware ADS-B
Sun 07:04:12 AM -24.8697 146.7542 332° Northwest 427 491 36,100  Climbing Aus ATC (RADAR)
Sun 07:04:22 AM -24.9770 146.8040 332° Northwest 425 489 36,000  Descending FlightAware ADS-B
Sun 07:04:47 AM -24.8081 146.7192 332° Northwest 427 491 36,100  Climbing Aus ATC (RADAR)
Sun 07:05:02 AM -24.9180 146.7690 332° Northwest 425 489 36,000 100 Descending FlightAware ADS-B
Sun 07:05:47 AM -24.7027 146.6601 332° Northwest 424 488 36,200  Climbing Aus ATC (RADAR)
Sun 07:06:02 AM -24.7090 146.6640 332° Northwest 426 490 36,000 -200 Descending FlightAware ADS-B
Sun 07:06:47 AM -24.6160 146.6120 333° Northwest 424 488 36,000  Level FlightAware ADS-B
Sun 07:07:22 AM -24.5620 146.5810 332° Northwest 425 489 36,000 80 Level FlightAware ADS-B
Sun 07:08:02 AM -24.4654 146.5272 332° Northwest 426 490 36,100  Climbing Aus ATC (RADAR)
Sun 07:08:07 AM -24.4750 146.5330 332° Northwest 425 489 36,000  Descending FlightAware ADS-B
Sun 07:08:37 AM -24.4041 146.4931 332° Northwest 424 488 36,100  Climbing Aus ATC (RADAR)
Sun 07:09:07 AM -24.3600 146.4690 332° Northwest 424 488 36,000  Descending FlightAware ADS-B
Sun 07:09:42 AM -24.2900 146.4294 332° Northwest 425 489 36,100  Climbing Aus ATC (RADAR)
Sun 07:09:47 AM -24.2990 146.4340 332° Northwest 424 488 36,000 133 Descending FlightAware ADS-B
Sun 07:10:27 AM -24.2110 146.3855 332° Northwest 425 489 36,200  Climbing Aus ATC (RADAR)
Sun 07:10:32 AM -24.2140 146.3870 332° Northwest 424 488 36,000  Descending FlightAware ADS-B
Sun 07:10:57 AM -24.1583 146.3566 332° Northwest 425 489 36,200  Climbing Aus ATC (RADAR)
Sun 07:11:07 AM -24.1570 146.3560 332° Northwest 424 488 36,000 -171 Descending FlightAware ADS-B
Sun 07:11:32 AM -24.0976 146.3226 332° Northwest 422 486 36,100  Climbing Aus ATC (RADAR)
Sun 07:11:52 AM -24.0860 146.3160 332° Northwest 424 488 36,000  Descending FlightAware ADS-B
Sun 07:12:07 AM -24.0359 146.2887 332° Northwest 424 488 36,100  Climbing Aus ATC (RADAR)
Sun 07:12:32 AM -24.0260 146.2830 333° Northwest 424 488 36,000  Descending FlightAware ADS-B
Sun 07:12:37 AM -23.9834 146.2596 333° Northwest 424 488 36,100 171 Climbing Aus ATC (RADAR)
Sun 07:13:07 AM -23.9321 146.2322 333° Northwest 416 479 36,100 -171 Level Aus ATC (RADAR)
Sun 07:13:12 AM -23.9670 146.2500 333° Northwest 424 488 36,000  Descending FlightAware ADS-B
Sun 07:13:42 AM -23.8725 146.2011 333° Northwest 411 473 36,100  Climbing Aus ATC (RADAR)
Sun 07:14:02 AM -23.8930 146.2090 333° Northwest 424 488 36,000  Descending FlightAware ADS-B
Sun 07:14:22 AM -23.8035 146.1637 333° Northwest 413 475 36,100  Climbing Aus ATC (RADAR)
Sun 07:14:42 AM -23.8330 146.1750 333° Northwest 424 488 36,000 -100 Descending FlightAware ADS-B
Sun 07:15:22 AM -23.7740 146.1420 333° Northwest 424 488 36,000 87 Level FlightAware ADS-B
Sun 07:15:51 AM -23.6479 146.0786 333° Northwest 315 362 36,100  Climbing Aus ATC (RADAR)
Sun 07:16:02 AM -23.7140 146.1090 333° Northwest 424 488 36,000 -118 Descending FlightAware ADS-B
Sun 07:16:42 AM -23.6550 146.0760 333° Northwest 424 488 36,000  Level FlightAware ADS-B
Sun 07:17:32 AM -23.5810 146.0350 333° Northwest 424 488 36,000 71 Level FlightAware ADS-B
Sun 07:18:06 AM -23.4072 145.9441 333° Northwest 423 487 36,100  Climbing Aus ATC (RADAR)
Sun 07:18:12 AM -23.5210 146.0020 333° Northwest 424 488 36,000  Descending FlightAware ADS-B
Sun 07:18:41 AM -23.3455 145.9095 333° Northwest 427 491 36,100  Climbing Aus ATC (RADAR)
Sun 07:18:52 AM -23.4620 145.9690 333° Northwest 424 488 36,000  Descending FlightAware ADS-B
Sun 07:19:11 AM -23.2933 145.8812 333° Northwest 422 486 36,100  Climbing Aus ATC (RADAR)
Sun 07:19:32 AM -23.4020 145.9360 333° Northwest 424 488 36,000 -98 Descending FlightAware ADS-B
Sun 07:20:12 AM -23.3430 145.9030 333° Northwest 424 488 36,000  Level FlightAware ADS-B
Sun 07:21:02 AM -23.2690 145.8620 333° Northwest 424 488 36,000 76 Level FlightAware ADS-B
Sun 07:21:31 AM -23.0471 145.7470 333° Northwest 427 491 36,100 94 Climbing Aus ATC (RADAR)
Sun 07:22:06 AM -22.9858 145.7135 333° Northwest 424 488 36,100  Level Aus ATC (RADAR)
Sun 07:22:46 AM -22.9151 145.6751 333° Northwest 426 490 36,100  Level Aus ATC (RADAR)
Sun 07:23:16 AM -22.8629 145.6461 333° Northwest 423 487 36,100  Level Aus ATC (RADAR)
Sun 07:23:51 AM -22.8000 145.6122 334° Northwest 429 494 36,100  Level Aus ATC (RADAR)
Sun 07:24:31 AM -22.7297 145.5739 333° Northwest 426 490 36,100  Level Aus ATC (RADAR)
Sun 07:25:06 AM -22.6683 145.5409 334° Northwest 425 489 36,100  Level Aus ATC (RADAR)
Sun 07:26:16 AM -22.5456 145.4746 333° Northwest 424 488 36,100  Level Aus ATC (RADAR)
Sun 07:26:41 AM -22.5014 145.4508 334° Northwest 425 489 36,100  Level Aus ATC (RADAR)
Sun 07:27:01 AM -22.4661 145.4316 333° Northwest 425 489 36,100  Level Aus ATC (RADAR)
Sun 07:27:36 AM -22.4051 145.3990 334° Northwest 421 484 36,100  Level Aus ATC (RADAR)
Sun 07:28:15 AM -22.3372 145.3620 333° Northwest 413 475 36,100  Level Aus ATC (RADAR)
Sun 07:28:40 AM -22.2911 145.3375 334° Northwest 423 487 36,100  Level Aus ATC (RADAR)
Sun 07:29:10 AM -22.2385 145.3091 333° Northwest 424 488 36,100  Level Aus ATC (RADAR)
Sun 07:29:50 AM -22.1684 145.2715 334° Northwest 423 487 36,100  Level Aus ATC (RADAR)
Sun 07:30:25 AM -22.1068 145.2385 334° Northwest 424 488 36,100  Level Aus ATC (RADAR)
Sun 07:31:15 AM -22.0198 145.1920 334° Northwest 420 483 36,100  Level Aus ATC (RADAR)
Sun 07:31:45 AM -21.9674 145.1634 333° Northwest 422 486 36,100  Level Aus ATC (RADAR)
Sun 07:32:15 AM -21.9154 145.1357 334° Northwest 419 482 36,100  Level Aus ATC (RADAR)
Sun 07:32:50 AM -21.8546 145.1033 334° Northwest 419 482 36,100  Level Aus ATC (RADAR)
Sun 07:33:30 AM -21.7847 145.0660 334° Northwest 421 484 36,100  Level Aus ATC (RADAR)
Sun 07:34:05 AM -21.7239 145.0338 334° Northwest 419 482 36,100  Level Aus ATC (RADAR)
Sun 07:34:45 AM -21.6544 144.9971 334° Northwest 420 483 36,100  Level Aus ATC (RADAR)
Sun 07:35:15 AM -21.6025 144.9689 333° Northwest 420 483 36,100  Level Aus ATC (RADAR)
Sun 07:36:05 AM -21.5159 144.9226 334° Northwest 421 484 36,100  Level Aus ATC (RADAR)
Sun 07:36:30 AM -21.4731 144.9002 334° Northwest 415 478 36,100  Level Aus ATC (RADAR)
Sun 07:36:50 AM -21.4382 144.8814 333° Northwest 419 482 36,100  Level Aus ATC (RADAR)
Sun 07:37:25 AM -21.3774 144.8492 334° Northwest 420 483 36,100  Level Aus ATC (RADAR)
Sun 07:38:05 AM -21.3084 144.8131 334° Northwest 416 479 36,100  Level Aus ATC (RADAR)
Sun 07:38:29 AM -21.2651 144.7902 334° Northwest 417 480 36,100  Level Aus ATC (RADAR)
Sun 07:39:04 AM -21.2045 144.7577 333° Northwest 419 482 36,100  Level Aus ATC (RADAR)
Sun 07:39:44 AM -21.1353 144.7214 334° Northwest 418 481 36,100  Level Aus ATC (RADAR)
Sun 07:40:04 AM -21.1011 144.7029 333° Northwest 417 480 36,100  Level Aus ATC (RADAR)
Sun 07:40:44 AM -21.0318 144.6664 334° Northwest 418 481 36,100  Level Aus ATC (RADAR)
Sun 07:41:29 AM -20.9538 144.6253 334° Northwest 418 481 36,100  Level Aus ATC (RADAR)
Sun 07:41:49 AM -20.9192 144.6075 334° Northwest 416 479 36,100  Level Aus ATC (RADAR)
Sun 07:42:24 AM -20.8579 144.5747 333° Northwest 421 484 36,100  Level Aus ATC (RADAR)
Sun 07:43:04 AM -20.7890 144.5385 334° Northwest 417 480 36,100  Level Aus ATC (RADAR)
Sun 07:43:39 AM -20.7284 144.5065 334° Northwest 418 481 36,100  Level Aus ATC (RADAR)
Sun 07:44:09 AM -20.6761 144.4788 334° Northwest 421 484 36,100  Level Aus ATC (RADAR)
Sun 07:44:49 AM -20.6064 144.4428 334° Northwest 419 482 36,100  Level Aus ATC (RADAR)
Sun 07:45:24 AM -20.5454 144.4107 334° Northwest 421 484 36,100  Level Aus ATC (RADAR)
Sun 07:46:14 AM -20.4588 144.3653 334° Northwest 421 484 36,100  Level Aus ATC (RADAR)
Sun 07:46:39 AM -20.4149 144.3426 334° Northwest 422 486 36,100  Level Aus ATC (RADAR)
Sun 07:46:59 AM -20.3799 144.3238 333° Northwest 422 486 36,100  Level Aus ATC (RADAR)
Sun 07:47:34 AM -20.3189 144.2923 334° Northwest 420 483 36,100  Level Aus ATC (RADAR)
Sun 07:48:14 AM -20.2497 144.2561 334° Northwest 417 480 36,100  Level Aus ATC (RADAR)
Sun 07:48:39 AM -20.2057 144.2330 334° Northwest 422 486 36,100  Level Aus ATC (RADAR)
Sun 07:49:08 AM -20.1537 144.2061 334° Northwest 419 482 36,100  Level Aus ATC (RADAR)
Sun 07:49:48 AM -20.0836 144.1697 334° Northwest 420 483 36,100  Level Aus ATC (RADAR)
Sun 07:50:13 AM -20.0402 144.1471 334° Northwest 419 482 36,100  Level Aus ATC (RADAR)
Sun 07:50:48 AM -19.9784 144.1150 334° Northwest 423 487 36,100  Level Aus ATC (RADAR)
Sun 07:51:28 AM -19.9085 144.0788 334° Northwest 422 486 36,100 -122 Level Aus ATC (RADAR)
Sun 07:51:37 AM -19.9080 144.0780 334° Northwest 412 474 36,000  Descending FlightAware ADS-B
Sun 07:52:03 AM -19.8477 144.0473 334° Northwest 416 479 36,100  Climbing Aus ATC (RADAR)
Sun 07:52:17 AM -19.8510 144.0470 333° Northwest 412 474 36,000  Descending FlightAware ADS-B
Sun 07:52:33 AM -19.7951 144.0201 333° Northwest 418 481 36,100  Climbing Aus ATC (RADAR)
Sun 07:52:57 AM -19.7930 144.0160 333° Northwest 412 474 36,000  Descending FlightAware ADS-B
Sun 07:53:13 AM -19.7259 143.9842 333° Northwest 415 478 36,100  Climbing Aus ATC (RADAR)
Sun 07:53:37 AM -19.7350 143.9850 333° Northwest 412 474 36,000 -94 Descending FlightAware ADS-B
Sun 07:54:17 AM -19.6770 143.9530 333° Northwest 412 474 36,000 130 Level FlightAware ADS-B
Sun 07:54:23 AM -19.6045 143.9211 333° Northwest 417 480 36,100 167 Climbing Aus ATC (RADAR)
Sun 07:54:53 AM -19.5523 143.8946 333° Northwest 416 479 36,100 -154 Level Aus ATC (RADAR)
Sun 07:55:02 AM -19.5430 143.8900 333° Northwest 415 478 36,000  Descending FlightAware ADS-B
Sun 07:55:23 AM -19.5008 143.8680 333° Northwest 413 475 36,100  Climbing Aus ATC (RADAR)
Sun 07:55:47 AM -19.4740 143.8550 333° Northwest 415 478 36,000  Descending FlightAware ADS-B
Sun 07:56:38 AM -19.3701 143.8007 333° Northwest 417 480 36,100  Climbing Aus ATC (RADAR)
Sun 07:56:47 AM -19.3730 143.8010 333° Northwest 416 479 36,000  Descending FlightAware ADS-B
Sun 07:57:13 AM -19.3084 143.7692 333° Northwest 420 483 36,100  Climbing Aus ATC (RADAR)
Sun 07:57:27 AM -19.3010 143.7660 333° Northwest 418 481 36,000  Descending FlightAware ADS-B
Sun 07:57:48 AM -19.2475 143.7380 333° Northwest 418 481 36,100  Climbing Aus ATC (RADAR)
Sun 07:58:07 AM -19.2420 143.7350 333° Northwest 418 481 36,000  Descending FlightAware ADS-B
Sun 07:58:23 AM -19.1864 143.7062 333° Northwest 420 483 36,100  Climbing Aus ATC (RADAR)
Sun 07:58:47 AM -19.1830 143.7050 333° Northwest 418 481 36,000  Descending FlightAware ADS-B
Sun 07:59:33 AM -19.0622 143.6428 333° Northwest 424 488 36,100 70 Climbing Aus ATC (RADAR)
Sun 08:00:13 AM -18.9911 143.6063 334° Northwest 424 488 36,100  Level Aus ATC (RADAR)
Sun 08:00:43 AM -18.9372 143.5785 334° Northwest 429 494 36,100 80 Level Aus ATC (RADAR)
Sun 08:01:28 AM -18.8563 143.5375 334° Northwest 433 498 36,200  Climbing Aus ATC (RADAR)
Sun 08:01:58 AM -18.8032 143.5103 334° Northwest 427 491 36,100 -94 Descending Aus ATC (RADAR)
Sun 08:02:32 AM -18.7408 143.4788 334° Northwest 426 490 36,100  Level Aus ATC (RADAR)
Sun 08:03:07 AM -18.6785 143.4469 334° Northwest 426 490 36,100  Level Aus ATC (RADAR)
Sun 08:03:42 AM -18.6161 143.4151 334° Northwest 428 493 36,100 -133 Level Aus ATC (RADAR)
Sun 08:03:52 AM -18.6110 143.4120 334° Northwest 427 491 36,000  Descending FlightAware ADS-B
Sun 08:04:17 AM -18.5538 143.3835 334° Northwest 428 493 36,100 92 Climbing Aus ATC (RADAR)
Sun 08:04:57 AM -18.4830 143.3471 334° Northwest 423 487 36,100  Level Aus ATC (RADAR)
Sun 08:05:32 AM -18.4202 143.3156 335° Northwest 427 491 36,100  Level Aus ATC (RADAR)
Sun 08:06:02 AM -18.3668 143.2883 334° Northwest 427 491 36,100  Level Aus ATC (RADAR)
Sun 08:06:42 AM -18.2953 143.2518 334° Northwest 428 493 36,100 -86 Level Aus ATC (RADAR)
Sun 08:07:12 AM -18.2580 143.2320 334° Northwest 428 493 36,000  Descending FlightAware ADS-B
Sun 08:07:47 AM -18.1807 143.1890 334° Northwest 429 494 36,100  Climbing Aus ATC (RADAR)
Sun 08:07:52 AM -18.1980 143.2000 334° Northwest 428 493 36,000  Descending FlightAware ADS-B
Sun 08:08:27 AM -18.1091 143.1499 334° Northwest 435 501 36,100  Climbing Aus ATC (RADAR)
Sun 08:08:32 AM -18.1380 143.1670 334° Northwest 428 493 36,000  Descending FlightAware ADS-B
Sun 08:09:02 AM -18.0474 143.1163 334° Northwest 431 496 36,100 133 Climbing Aus ATC (RADAR)
Sun 08:09:17 AM -18.0330 143.1080 334° Northwest 433 498 36,100 171 Level FlightAware ADS-B
Sun 08:09:37 AM -17.9844 143.0823 334° Northwest 435 501 36,200  Climbing Aus ATC (RADAR)
Sun 08:10:02 AM -18.0320 143.1080 334° Northwest 434 499 36,100 -92 Descending FlightAware ADS-B
Sun 08:10:42 AM -17.9720 143.0740 332° Northwest 434 499 36,100  Level FlightAware ADS-B
Sun 08:11:22 AM -17.9120 143.0410 332° Northwest 434 499 36,100  Level FlightAware ADS-B
Sun 08:11:57 AM -17.7334 142.9464 332° Northwest 435 501 36,100  Level Aus ATC (RADAR)
Sun 08:12:12 AM -17.8370 142.9980 332° Northwest 434 499 36,100  Level FlightAware ADS-B
Sun 08:12:32 AM -17.6710 142.9127 332° Northwest 433 498 36,100  Level Aus ATC (RADAR)
Sun 08:12:42 AM -17.7910 142.9730 332° Northwest 434 499 36,100  Level FlightAware ADS-B
Sun 08:13:06 AM -17.6079 142.8790 332° Northwest 435 501 36,100  Level Aus ATC (RADAR)
Sun 08:13:22 AM -17.7310 142.9400 332° Northwest 434 499 36,100  Level FlightAware ADS-B
Sun 08:13:46 AM -17.5365 142.8402 332° Northwest 434 499 36,100  Level Aus ATC (RADAR)
Sun 08:14:02 AM -17.6710 142.9060 332° Northwest 434 499 36,100  Level FlightAware ADS-B
Sun 08:14:32 AM -17.6260 142.8810 332° Northwest 434 499 36,100  Level FlightAware ADS-B
Sun 08:14:56 AM -17.4110 142.7727 332° Northwest 434 499 36,100  Level Aus ATC (RADAR)
Sun 08:15:21 AM -17.3665 142.7487 333° Northwest 433 498 36,100  Level Aus ATC (RADAR)
Sun 08:15:32 AM -17.5350 142.8300 333° Northwest 434 499 36,100  Level FlightAware ADS-B
Sun 08:15:56 AM -17.3035 142.7151 333° Northwest 435 501 36,100  Level Aus ATC (RADAR)
Sun 08:16:12 AM -17.4750 142.7970 333° Northwest 434 499 36,100  Level FlightAware ADS-B
Sun 08:16:36 AM -17.2322 142.6773 333° Northwest 432 497 36,100  Level Aus ATC (RADAR)
Sun 08:16:52 AM -17.4150 142.7630 333° Northwest 434 499 36,100  Level FlightAware ADS-B
Sun 08:17:36 AM -17.1263 142.6198 333° Northwest 430 495 36,100  Level Aus ATC (RADAR)
Sun 08:17:42 AM -17.3390 142.7210 333° Northwest 434 499 36,100  Level FlightAware ADS-B
Sun 08:18:11 AM -17.0640 142.5863 333° Northwest 431 496 36,100  Level Aus ATC (RADAR)
Sun 08:18:22 AM -17.2790 142.6880 333° Northwest 434 499 36,100  Level FlightAware ADS-B
Sun 08:18:46 AM -17.0014 142.5529 333° Northwest 432 497 36,100  Level Aus ATC (RADAR)
Sun 08:19:02 AM -17.2190 142.6540 333° Northwest 434 499 36,100  Level FlightAware ADS-B
Sun 08:19:21 AM -16.9390 142.5192 333° Northwest 432 497 36,100  Level Aus ATC (RADAR)
Sun 08:20:01 AM -16.8661 142.4809 333° Northwest 436 502 36,100  Level Aus ATC (RADAR)
Sun 08:20:31 AM -16.8117 142.4518 333° Northwest 438 504 36,100  Level Aus ATC (RADAR)
Sun 08:21:06 AM -16.7485 142.4182 333° Northwest 438 504 36,100  Level Aus ATC (RADAR)
Sun 08:22:01 AM -16.6495 142.3653 333° Northwest 436 502 36,100  Level Aus ATC (RADAR)
Sun 08:22:31 AM -16.5956 142.3362 333° Northwest 436 502 36,100  Level Aus ATC (RADAR)
Sun 08:23:06 AM -16.5318 142.3024 333° Northwest 438 504 36,100  Level Aus ATC (RADAR)
Sun 08:23:45 AM -16.4578 142.2639 333° Northwest 443 510 36,100  Level Aus ATC (RADAR)
Sun 08:24:20 AM -16.3958 142.2295 332° Northwest 440 506 36,100  Level Aus ATC (RADAR)
Sun 08:24:50 AM -16.3409 142.2009 333° Northwest 438 504 36,100  Level Aus ATC (RADAR)
Sun 08:25:30 AM -16.2677 142.1620 333° Northwest 440 506 36,100  Level Aus ATC (RADAR)
Sun 08:26:05 AM -16.2029 142.1282 333° Northwest 444 511 36,100  Level Aus ATC (RADAR)
Sun 08:26:55 AM -16.1127 142.0798 333° Northwest 441 507 36,100  Level Aus ATC (RADAR)
Sun 08:27:15 AM -16.0760 142.0608 334° Northwest 440 506 36,100  Level Aus ATC (RADAR)
Sun 08:27:50 AM -16.0126 142.0265 333° Northwest 441 507 36,100  Level Aus ATC (RADAR)
Sun 08:28:25 AM -15.9493 141.9930 333° Northwest 437 503 36,100  Level Aus ATC (RADAR)
Sun 08:29:00 AM -15.8839 141.9590 333° Northwest 441 507 36,100  Level Aus ATC (RADAR)
Sun 08:29:35 AM -15.8214 141.9245 332° Northwest 440 506 36,100 -86 Level Aus ATC (RADAR)
Sun 08:30:10 AM -15.7571 141.8914 334° Northwest 438 504 36,000 -86 Descending Aus ATC (RADAR)
Sun 08:30:45 AM -15.6923 141.8585 334° Northwest 440 506 36,000  Level Aus ATC (RADAR)
Sun 08:31:20 AM -15.6258 141.8265 335° Northwest 444 511 36,000  Level Aus ATC (RADAR)
Sun 08:31:40 AM -15.5890 141.8075 334° Northwest 445 512 36,000  Level Aus ATC (RADAR)
Sun 08:32:35 AM -15.4831 141.7580 336° Northwest 530 610 36,000  Level Aus ATC (RADAR)
Sun 08:33:50 AM -15.3513 141.6797 330° Northwest 455 524 36,000  Level Aus ATC (RADAR)
Sun 08:34:20 AM -15.2992 141.6478 329° Northwest 445 512 36,000  Level Aus ATC (RADAR)
Sun 08:34:55 AM -15.2365 141.6115 331° Northwest 442 509 36,000  Level Aus ATC (RADAR)
Sun 08:35:35 AM -15.1644 141.5700 331° Northwest 443 510 36,000  Level Aus ATC (RADAR)
Sun 08:36:05 AM -15.1091 141.5397 332° Northwest 443 510 36,000  Level Aus ATC (RADAR)
Sun 08:36:44 AM -15.0366 141.4981 331° Northwest 445 512 36,000  Level Aus ATC (RADAR)
Sun 08:37:14 AM -14.9840 141.4666 330° Northwest 441 507 36,000  Level Aus ATC (RADAR)
Sun 08:37:39 AM -14.9397 141.4409 331° Northwest 440 506 36,000 -45 Level Aus ATC (RADAR)
Sun 08:42:04 AM -14.4418 141.1573 322° Northwest 36,000 -45 Level Aus ATC (Calculated)
Sun 08:44:00 AM -14.2391 141.0423 331° Northwest  Level FlightAware Approximate
Sun 08:44:05 AM -14.2239 141.0336 322° Northwest 36,000  Level Aus ATC (Calculated)
Sun 08:44:47 AM -14.1217 140.9757 322° Northwest 36,000 -46 Level Aus ATC (Calculated)
Sun 08:46:00 AM -13.9941 140.9035 331° Northwest  Level FlightAware Approximate
Sun 08:47:00 AM -13.8892 140.8442 331° Northwest  Level FlightAware Approximate
Sun 08:47:04 AM -13.8742 140.8357 322° Northwest 36,000  Level Aus ATC (Calculated)
Sun 08:49:00 AM -13.6713 140.7212 331° Northwest  Level FlightAware Approximate
Sun 08:50:00 AM -13.5663 140.6621 331° Northwest  Level FlightAware Approximate
Sun 08:51:00 AM -13.4614 140.6030 331° Northwest  Level FlightAware Approximate
Sun 08:52:00 AM -13.3564 140.5440 331° Northwest  Level FlightAware Approximate
Sun 08:52:03 AM -13.3262 140.5270 322° Northwest 36,000  Level Aus ATC (Calculated)
Sun 08:54:00 AM -13.1214 140.4121 331° Northwest  Level FlightAware Approximate
Sun 08:55:00 AM -13.0164 140.3532 331° Northwest  Level FlightAware Approximate
Sun 08:56:00 AM -12.9114 140.2944 331° Northwest  Level FlightAware Approximate
Sun 08:57:00 AM -12.8063 140.2357 331° Northwest  Level FlightAware Approximate
Sun 08:57:03 AM -12.8064 140.2357 322° Northwest 36,000  Level Aus ATC (Calculated)
Sun 08:59:00 AM -12.6015 140.1212 331° Northwest  Level FlightAware Approximate
Sun 09:00:00 AM -12.4964 140.0626 331° Northwest  Level FlightAware Approximate
Sun 09:01:00 AM -12.3913 140.0040 331° Northwest  Level FlightAware Approximate
Sun 09:02:00 AM -12.2861 139.9455 331° Northwest  Level FlightAware Approximate
Sun 09:02:03 AM -12.2839 139.9443 322° Northwest 36,000  Level Aus ATC (Calculated)
Sun 09:04:00 AM -12.0789 139.8303 331° Northwest  Level FlightAware Approximate
Sun 09:05:00 AM -11.9737 139.7719 331° Northwest  Level FlightAware Approximate
Sun 09:06:00 AM -11.8685 139.7135 332° Northwest  Level FlightAware Approximate
Sun 09:07:00 AM -11.7634 139.6552 332° Northwest  Level FlightAware Approximate
Sun 09:07:02 AM -11.6993 139.6198 322° Northwest 36,000  Level Aus ATC (Calculated)
Sun 09:09:00 AM -11.4924 139.5053 332° Northwest  Level FlightAware Approximate
Sun 09:10:00 AM -11.3872 139.4472 332° Northwest  Level FlightAware Approximate
Sun 09:11:00 AM -11.2819 139.3891 332° Northwest  Level FlightAware Approximate
Sun 09:12:00 AM -11.1767 139.3310 332° Northwest  Level FlightAware Approximate
Sun 09:12:02 AM -11.1822 139.3340 322° Northwest 36,000  Level Aus ATC (Calculated)
Sun 09:13:00 AM -11.0715 139.2730 332° Northwest  Level FlightAware Approximate
Sun 09:13:32 AM -11.0059 139.2369 322° Northwest 36,000  Level Aus ATC (Calculated)
Sun 09:14:00 AM -10.9752 139.2200 332° Northwest  Level FlightAware Approximate
Sun 09:15:00 AM -10.8515 139.1519 332° Northwest  Level FlightAware Approximate
Sun 09:16:00 AM -10.9568 139.2098 152° Southeast  Level FlightAware Approximate
Sun 09:17:00 AM -10.8515 139.1519 332° Northwest  Level FlightAware Approximate
Sun 09:17:11 AM -10.6036 139.0163 322° Northwest 36,000  Level Aus ATC (Calculated)
Sun 09:18:48 AM -10.4435 138.9288 322° Northwest 36,000 -51 Level Aus ATC (Calculated)
Sun 09:19:00 AM -10.7950 139.1211 152° Southeast  Level FlightAware Approximate
Sun 09:20:00 AM -10.3280 138.8420 332° Northwest  Level Estimated
Sun 09:21:00 AM -10.2219 138.7858 332° Northwest  Level FlightAware Approximate
Sun 09:22:00 AM -10.1158 138.7296 332° Northwest  Level FlightAware Approximate
Sun 09:22:09 AM -10.0969 138.7395 322° Northwest 36,000  Level Aus ATC (Calculated)
Sun 09:23:26 AM -9.9422 138.6551 322° Northwest 36,000 -52 Level Aus ATC (Calculated)
Sun 09:23:26 AM -9.9422 138.6551 322° Northwest 36,000 -52 Level Aus ATC (Calculated)
Sun 09:25:00 AM -9.7770 138.5652 332° Northwest  Level FlightAware Approximate
Sun 09:26:00 AM -9.6715 138.5078 332° Northwest  Level FlightAware Approximate
Sun 09:27:00 AM -9.5661 138.4504 332° Northwest  Level FlightAware Approximate
Sun 09:27:10 AM -9.5359 138.4340 322° Northwest 36,000  Level Aus ATC (Calculated)
Sun 09:28:00 AM -9.4606 138.3931 332° Northwest  Level FlightAware Approximate
Sun 09:28:25 AM -9.4512 138.3880 322° Northwest 36,000  Level Aus ATC (Calculated)
Sun 09:29:00 AM -9.3425 138.3290 332° Northwest  Level FlightAware Approximate
Sun 09:30:00 AM -9.2842 138.2974 332° Northwest  Level FlightAware Approximate
Sun 09:31:00 AM -9.1787 138.2401 332° Northwest  Level FlightAware Approximate
Sun 09:32:00 AM -9.0732 138.1830 332° Northwest  Level FlightAware Approximate
Sun 09:33:00 AM -8.9677 138.1258 332° Northwest  Level FlightAware Approximate
Sun 09:34:00 AM -8.8622 138.0687 332° Northwest  Level FlightAware Approximate
Sun 09:35:00 AM -8.7566 138.0117 332° Northwest  Level FlightAware Approximate
Sun 09:36:00 AM -8.8622 138.0687 152° Southeast  Level FlightAware Approximate
Sun 09:37:00 AM -8.7566 138.0117 332° Northwest  Level FlightAware Approximate
Sun 09:38:00 AM -8.8509 138.0609 323° Northwest  Level FlightAware Approximate
Sun 09:39:00 AM -8.7559 137.9873 323° Northwest  Level FlightAware Approximate
Sun 09:40:00 AM -8.6608 137.9138 323° Northwest  Level FlightAware Approximate
Sun 09:41:00 AM -8.5658 137.8403 323° Northwest  Level FlightAware Approximate
Sun 09:42:00 AM -8.4707 137.7668 323° Northwest  Level FlightAware Approximate
Sun 09:43:00 AM -8.3756 137.6933 323° Northwest  Level FlightAware Approximate
Sun 09:44:00 AM -8.2805 137.6199 323° Northwest  Level FlightAware Approximate
Sun 09:45:00 AM -8.1854 137.5466 323° Northwest  Level FlightAware Approximate
Sun 09:46:00 AM -8.0903 137.4732 323° Northwest  Level FlightAware Approximate
Sun 09:47:00 AM -7.9952 137.3999 323° Northwest  Level FlightAware Approximate
Sun 09:48:00 AM -7.9000 137.3267 323° Northwest  Level FlightAware Approximate
Sun 09:49:00 AM -7.8049 137.2534 323° Northwest  Level FlightAware Approximate
Sun 09:50:00 AM -7.7097 137.1802 323° Northwest  Level FlightAware Approximate
Sun 09:51:00 AM -7.6145 137.1071 323° Northwest  Level FlightAware Approximate
Sun 09:52:00 AM -7.5193 137.0339 323° Northwest  Level FlightAware Approximate
Sun 09:53:00 AM -7.4241 136.9608 323° Northwest  Level FlightAware Approximate
Sun 09:54:00 AM -7.3289 136.8878 323° Northwest  Level FlightAware Approximate
Sun 09:55:00 AM -7.2336 136.8147 323° Northwest  Level FlightAware Approximate
Sun 09:56:00 AM -7.1384 136.7417 323° Northwest  Level FlightAware Approximate
Sun 09:57:00 AM -7.0431 136.6687 323° Northwest  Level FlightAware Approximate
Sun 09:58:00 AM -6.9478 136.5958 323° Northwest  Level FlightAware Approximate
Sun 09:59:00 AM -6.8526 136.5229 323° Northwest  Level FlightAware Approximate
Sun 10:00:00 AM -6.7573 136.4500 323° Northwest  Level FlightAware Approximate
Sun 10:01:00 AM -6.6620 136.3771 323° Northwest  Level FlightAware Approximate
Sun 10:02:00 AM -6.5667 136.3043 323° Northwest  Level FlightAware Approximate
Sun 10:03:00 AM -6.4713 136.2315 323° Northwest  Level FlightAware Approximate
Sun 10:04:00 AM -6.3760 136.1587 323° Northwest  Level FlightAware Approximate
Sun 10:05:00 AM -6.2807 136.0860 323° Northwest  Level FlightAware Approximate
Sun 10:06:00 AM -6.1853 136.0132 323° Northwest  Level FlightAware Approximate
Sun 10:07:00 AM -6.0900 135.9405 323° Northwest  Level FlightAware Approximate
Sun 10:08:00 AM -5.9946 135.8679 323° Northwest  Level FlightAware Approximate
Sun 10:09:00 AM -5.8992 135.7952 323° Northwest  Level FlightAware Approximate
Sun 10:10:00 AM -5.8038 135.7226 323° Northwest  Level FlightAware Approximate
Sun 10:11:00 AM -5.7084 135.6500 323° Northwest  Level FlightAware Approximate
Sun 10:12:00 AM -5.6130 135.5774 323° Northwest  Level FlightAware Approximate
Sun 10:13:00 AM -5.5176 135.5049 323° Northwest  Level FlightAware Approximate
Sun 10:14:00 AM -5.4222 135.4323 323° Northwest  Level FlightAware Approximate
Sun 10:15:00 AM -5.3267 135.3598 323° Northwest  Level FlightAware Approximate
Sun 10:16:00 AM -5.2313 135.2874 323° Northwest  Level FlightAware Approximate
Sun 10:17:00 AM -5.1358 135.2149 323° Northwest  Level FlightAware Approximate
Sun 10:18:00 AM -5.0403 135.1425 323° Northwest  Level FlightAware Approximate
Sun 10:19:00 AM -4.9449 135.0701 323° Northwest  Level FlightAware Approximate
Sun 10:20:00 AM -4.8494 134.9977 323° Northwest  Level FlightAware Approximate
Sun 10:21:00 AM -4.7539 134.9253 323° Northwest  Level FlightAware Approximate
Sun 10:22:00 AM -4.6584 134.8530 323° Northwest  Level FlightAware Approximate
Sun 10:23:00 AM -4.5629 134.7806 323° Northwest  Level FlightAware Approximate
Sun 10:24:00 AM -4.4674 134.7083 323° Northwest  Level FlightAware Approximate
Sun 10:25:00 AM -4.3719 134.6360 323° Northwest  Level FlightAware Approximate
Sun 10:26:00 AM -4.2764 134.5637 323° Northwest  Level FlightAware Approximate
Sun 10:27:00 AM -4.1808 134.4915 323° Northwest  Level FlightAware Approximate
Sun 10:28:00 AM -4.0853 134.4192 323° Northwest  Level FlightAware Approximate
Sun 10:29:00 AM -3.9898 134.3470 323° Northwest  Level FlightAware Approximate
Sun 10:30:00 AM -3.8942 134.2748 323° Northwest  Level FlightAware Approximate
Sun 10:31:00 AM -3.7987 134.2026 323° Northwest  Level FlightAware Approximate
Sun 10:32:00 AM -3.7031 134.1304 323° Northwest  Level FlightAware Approximate
Sun 10:33:00 AM -3.6075 134.0583 323° Northwest  Level FlightAware Approximate
Sun 10:34:00 AM -3.5120 133.9861 323° Northwest  Level FlightAware Approximate
Sun 10:35:00 AM -3.4164 133.9140 323° Northwest  Level FlightAware Approximate
Sun 10:36:00 AM -3.3208 133.8419 323° Northwest  Level FlightAware Approximate
Sun 10:37:00 AM -3.2252 133.7698 323° Northwest  Level FlightAware Approximate
Sun 10:38:00 AM -3.1296 133.6977 323° Northwest  Level FlightAware Approximate
Sun 10:39:00 AM -3.0340 133.6256 323° Northwest  Level FlightAware Approximate
Sun 10:40:00 AM -2.9398 133.5517 321° Northwest  Level FlightAware Approximate
Sun 10:41:00 AM -2.8465 133.4767 321° Northwest  Level FlightAware Approximate
Sun 10:42:00 AM -2.7531 133.4017 321° Northwest  Level FlightAware Approximate
Sun 10:43:00 AM -2.6598 133.3268 321° Northwest  Level FlightAware Approximate
Sun 10:44:00 AM -2.5664 133.2519 321° Northwest  Level FlightAware Approximate
Sun 10:45:00 AM -2.4731 133.1769 321° Northwest  Level FlightAware Approximate
Sun 10:46:00 AM -2.3797 133.1020 321° Northwest  Level FlightAware Approximate
Sun 10:47:00 AM -2.2864 133.0271 321° Northwest  Level FlightAware Approximate
Sun 10:48:00 AM -2.1930 132.9522 321° Northwest  Level FlightAware Approximate
Sun 10:49:00 AM -2.0996 132.8774 321° Northwest  Level FlightAware Approximate
Sun 10:50:00 AM -2.0062 132.8025 321° Northwest  Level FlightAware Approximate
Sun 10:51:00 AM -1.9128 132.7276 321° Northwest  Level FlightAware Approximate
Sun 10:52:00 AM -1.8195 132.6528 321° Northwest  Level FlightAware Approximate
Sun 10:53:00 AM -1.7261 132.5779 321° Northwest  Level FlightAware Approximate
Sun 10:54:00 AM -1.6327 132.5031 321° Northwest  Level FlightAware Approximate
Sun 10:55:00 AM -1.5393 132.4282 321° Northwest  Level FlightAware Approximate
Sun 10:56:00 AM -1.4459 132.3534 321° Northwest  Level FlightAware Approximate
Sun 10:57:00 AM -1.3525 132.2786 321° Northwest  Level FlightAware Approximate
Sun 10:58:00 AM -1.2591 132.2038 321° Northwest  Level FlightAware Approximate
Sun 10:59:00 AM -1.1657 132.1289 321° Northwest  Level FlightAware Approximate
Sun 11:00:00 AM -1.0723 132.0541 321° Northwest  Level FlightAware Approximate
Sun 11:01:00 AM -0.9789 131.9793 321° Northwest  Level FlightAware Approximate
Sun 11:02:00 AM -0.8854 131.9045 321° Northwest  Level FlightAware Approximate
Sun 11:03:00 AM -0.7920 131.8297 321° Northwest  Level FlightAware Approximate
Sun 11:04:00 AM -0.6986 131.7549 321° Northwest  Level FlightAware Approximate
Sun 11:05:00 AM -0.6052 131.6801 321° Northwest  Level FlightAware Approximate
Sun 11:06:00 AM -0.5118 131.6054 321° Northwest  Level FlightAware Approximate
Sun 11:07:00 AM -0.4184 131.5306 321° Northwest  Level FlightAware Approximate
Sun 11:08:00 AM -0.3250 131.4558 321° Northwest  Level FlightAware Approximate
Sun 11:09:00 AM -0.2315 131.3810 321° Northwest  Level FlightAware Approximate
Sun 11:10:00 AM -0.1381 131.3062 321° Northwest  Level FlightAware Approximate
Sun 11:11:00 AM -0.0447 131.2315 321° Northwest  Level FlightAware Approximate
Sun 11:12:00 AM 0.0487 131.1567 321° Northwest  Level FlightAware Approximate
Sun 11:13:00 AM 0.1421 131.0819 321° Northwest  Level FlightAware Approximate
Sun 11:14:00 AM 0.2356 131.0071 321° Northwest  Level FlightAware Approximate
Sun 11:15:00 AM 0.3290 130.9323 321° Northwest  Level FlightAware Approximate
Sun 11:16:00 AM 0.4224 130.8576 321° Northwest  Level FlightAware Approximate
Sun 11:17:00 AM 0.5158 130.7828 321° Northwest  Level FlightAware Approximate
Sun 11:18:00 AM 0.6092 130.7080 321° Northwest  Level FlightAware Approximate
Sun 11:19:00 AM 0.7027 130.6332 321° Northwest  Level FlightAware Approximate
Sun 11:20:00 AM 0.7961 130.5584 321° Northwest  Level FlightAware Approximate
Sun 11:21:00 AM 0.8895 130.4836 321° Northwest  Level FlightAware Approximate
Sun 11:22:00 AM 0.9829 130.4088 321° Northwest  Level FlightAware Approximate
Sun 11:23:00 AM 1.0763 130.3340 321° Northwest  Level FlightAware Approximate
Sun 11:24:00 AM 1.1697 130.2592 321° Northwest  Level FlightAware Approximate
Sun 11:25:00 AM 1.2631 130.1844 321° Northwest  Level FlightAware Approximate
Sun 11:26:00 AM 1.3565 130.1096 321° Northwest  Level FlightAware Approximate
Sun 11:27:00 AM 1.4499 130.0347 321° Northwest  Level FlightAware Approximate
Sun 11:28:00 AM 1.5433 129.9599 321° Northwest  Level FlightAware Approximate
Sun 11:29:00 AM 1.6367 129.8851 321° Northwest  Level FlightAware Approximate
Sun 11:30:00 AM 1.7301 129.8102 321° Northwest  Level FlightAware Approximate
Sun 11:31:00 AM 1.8235 129.7354 321° Northwest  Level FlightAware Approximate
Sun 11:32:00 AM 1.9168 129.6605 321° Northwest  Level FlightAware Approximate
Sun 11:33:00 AM 2.0114 129.5871 323° Northwest  Level FlightAware Approximate
Sun 11:34:00 AM 2.1069 129.5150 323° Northwest  Level FlightAware Approximate
Sun 11:35:00 AM 2.2025 129.4429 323° Northwest  Level FlightAware Approximate
Sun 11:36:00 AM 2.2980 129.3708 323° Northwest  Level FlightAware Approximate
Sun 11:37:00 AM 2.3935 129.2987 323° Northwest  Level FlightAware Approximate
Sun 11:38:00 AM 2.4890 129.2265 323° Northwest  Level FlightAware Approximate
Sun 11:39:00 AM 2.5846 129.1544 323° Northwest  Level FlightAware Approximate
Sun 11:40:00 AM 2.6801 129.0822 323° Northwest  Level FlightAware Approximate
Sun 11:41:00 AM 2.7756 129.0101 323° Northwest  Level FlightAware Approximate
Sun 11:42:00 AM 2.8711 128.9379 323° Northwest  Level FlightAware Approximate
Sun 11:43:00 AM 2.9666 128.8657 323° Northwest  Level FlightAware Approximate
Sun 11:44:00 AM 3.0621 128.7935 323° Northwest  Level FlightAware Approximate
Sun 11:45:00 AM 3.1576 128.7213 323° Northwest  Level FlightAware Approximate
Sun 11:46:00 AM 3.2531 128.6490 323° Northwest  Level FlightAware Approximate
Sun 11:47:00 AM 3.3485 128.5768 323° Northwest  Level FlightAware Approximate
Sun 11:48:00 AM 3.4440 128.5045 323° Northwest  Level FlightAware Approximate
Sun 11:49:00 AM 3.5395 128.4323 323° Northwest  Level FlightAware Approximate
Sun 11:50:00 AM 3.6349 128.3600 323° Northwest  Level FlightAware Approximate
Sun 11:51:00 AM 3.7304 128.2876 323° Northwest  Level FlightAware Approximate
Sun 11:52:00 AM 3.8259 128.2153 323° Northwest  Level FlightAware Approximate
Sun 11:53:00 AM 3.9213 128.1430 323° Northwest  Level FlightAware Approximate
Sun 11:54:00 AM 4.0166 128.0705 322° Northwest  Level FlightAware Approximate
Sun 11:55:00 AM 4.1115 127.9974 322° Northwest  Level FlightAware Approximate
Sun 11:56:00 AM 4.2063 127.9242 322° Northwest  Level FlightAware Approximate
Sun 11:57:00 AM 4.3012 127.8510 322° Northwest  Level FlightAware Approximate
Sun 11:58:00 AM 4.3960 127.7778 322° Northwest  Level FlightAware Approximate
Sun 11:59:00 AM 4.4908 127.7046 322° Northwest  Level FlightAware Approximate
Sun 12:00:00 PM 4.5856 127.6314 322° Northwest  Level FlightAware Approximate
Sun 12:01:00 PM 4.6804 127.5581 322° Northwest  Level FlightAware Approximate
Sun 12:02:00 PM 4.7752 127.4849 322° Northwest  Level FlightAware Approximate
Sun 12:03:00 PM 4.8700 127.4116 322° Northwest  Level FlightAware Approximate
Sun 12:04:00 PM 4.9648 127.3383 322° Northwest  Level FlightAware Approximate
Sun 12:05:00 PM 5.0596 127.2649 322° Northwest  Level FlightAware Approximate
Sun 12:06:00 PM 5.1543 127.1916 322° Northwest  Level FlightAware Approximate
Sun 12:07:00 PM 5.2491 127.1182 322° Northwest  Level FlightAware Approximate
Sun 12:08:00 PM 5.3438 127.0448 322° Northwest  Level FlightAware Approximate
Sun 12:09:00 PM 5.4386 126.9714 322° Northwest  Level FlightAware Approximate
Sun 12:10:00 PM 5.5333 126.8979 322° Northwest  Level FlightAware Approximate
Sun 12:11:00 PM 5.6280 126.8244 322° Northwest  Level FlightAware Approximate
Sun 12:12:00 PM 5.7227 126.7510 322° Northwest  Level FlightAware Approximate
Sun 12:13:00 PM 5.8174 126.6774 322° Northwest  Level FlightAware Approximate
Sun 12:14:00 PM 5.9121 126.6039 322° Northwest  Level FlightAware Approximate
Sun 12:15:00 PM 6.0068 126.5303 322° Northwest  Level FlightAware Approximate
Sun 12:16:00 PM 6.1015 126.4567 322° Northwest  Level FlightAware Approximate
Sun 12:17:00 PM 6.1961 126.3831 322° Northwest  Level FlightAware Approximate
Sun 12:18:00 PM 6.2908 126.3095 322° Northwest  Level FlightAware Approximate
Sun 12:19:00 PM 6.3854 126.2358 322° Northwest  Level FlightAware Approximate
Sun 12:20:00 PM 6.4801 126.1621 322° Northwest  Level FlightAware Approximate
Sun 12:21:00 PM 6.5747 126.0884 322° Northwest  Level FlightAware Approximate
Sun 12:22:00 PM 6.6693 126.0146 322° Northwest  Level FlightAware Approximate
Sun 12:23:00 PM 6.7639 125.9408 322° Northwest  Level FlightAware Approximate
Sun 12:24:00 PM 6.8585 125.8670 322° Northwest  Level FlightAware Approximate
Sun 12:25:00 PM 6.9531 125.7932 322° Northwest  Level FlightAware Approximate
Sun 12:26:00 PM 7.0477 125.7193 322° Northwest  Level FlightAware Approximate
Sun 12:27:00 PM 7.1421 125.6452 321° Northwest  Level FlightAware Approximate
Sun 12:28:00 PM 7.2353 125.5696 321° Northwest  Level FlightAware Approximate
Sun 12:29:00 PM 7.3285 125.4940 321° Northwest  Level FlightAware Approximate
Sun 12:30:00 PM 7.4218 125.4184 321° Northwest  Level FlightAware Approximate
Sun 12:31:00 PM 7.5150 125.3427 321° Northwest  Level FlightAware Approximate
Sun 12:32:00 PM 7.6082 125.2670 321° Northwest  Level FlightAware Approximate
Sun 12:33:00 PM 7.7013 125.1912 321° Northwest  Level FlightAware Approximate
Sun 12:34:00 PM 7.7945 125.1154 321° Northwest  Level FlightAware Approximate
Sun 12:35:00 PM 7.8877 125.0396 321° Northwest  Level FlightAware Approximate
Sun 12:36:00 PM 7.9808 124.9637 321° Northwest  Level FlightAware Approximate
Sun 12:37:00 PM 8.0740 124.8879 321° Northwest  Level FlightAware Approximate
Sun 12:38:00 PM 8.1671 124.8120 321° Northwest  Level FlightAware Approximate
Sun 12:39:00 PM 8.2602 124.7361 321° Northwest  Level FlightAware Approximate
Sun 12:40:00 PM 8.3533 124.6601 321° Northwest  Level FlightAware Approximate
Sun 12:41:00 PM 8.4456 124.5832 319° Northwest  Level FlightAware Approximate
Sun 12:42:00 PM 8.5365 124.5044 319° Northwest  Level FlightAware Approximate
Sun 12:43:00 PM 8.6272 124.4256 319° Northwest  Level FlightAware Approximate
Sun 12:44:00 PM 8.7180 124.3467 319° Northwest  Level FlightAware Approximate
Sun 12:45:00 PM 8.8088 124.2678 319° Northwest  Level FlightAware Approximate
Sun 12:46:00 PM 8.8996 124.1889 319° Northwest  Level FlightAware Approximate
Sun 12:47:00 PM 8.9903 124.1099 319° Northwest  Level FlightAware Approximate
Sun 12:48:00 PM 9.0810 124.0309 319° Northwest  Level FlightAware Approximate
Sun 12:49:00 PM 9.1717 123.9519 319° Northwest  Level FlightAware Approximate
Sun 12:50:00 PM 9.2624 123.8728 319° Northwest  Level FlightAware Approximate
Sun 12:51:00 PM 9.3531 123.7937 319° Northwest  Level FlightAware Approximate
Sun 12:52:00 PM 9.4438 123.7145 319° Northwest  Level FlightAware Approximate
Sun 12:53:00 PM 9.5344 123.6353 319° Northwest  Level FlightAware Approximate
Sun 12:54:00 PM 9.6250 123.5561 319° Northwest  Level FlightAware Approximate
Sun 12:55:00 PM 9.7157 123.4768 319° Northwest  Level FlightAware Approximate
Sun 12:56:00 PM 9.8063 123.3975 319° Northwest  Level FlightAware Approximate
Sun 12:57:00 PM 9.8968 123.3181 319° Northwest  Level FlightAware Approximate
Sun 12:58:00 PM 9.9874 123.2387 319° Northwest  Level FlightAware Approximate
Sun 12:59:00 PM 10.0779 123.1592 319° Northwest  Level FlightAware Approximate
Sun 01:00:00 PM 10.1685 123.0798 319° Northwest  Level FlightAware Approximate
Sun 01:01:00 PM 10.2590 123.0002 319° Northwest  Level FlightAware Approximate
Sun 01:02:00 PM 10.3495 122.9206 319° Northwest  Level FlightAware Approximate
Sun 01:03:00 PM 10.4399 122.8410 319° Northwest  Level FlightAware Approximate
Sun 01:04:00 PM 10.5304 122.7613 319° Northwest  Level FlightAware Approximate
Sun 01:05:00 PM 10.6208 122.6816 319° Northwest  Level FlightAware Approximate
Sun 01:06:00 PM 10.7112 122.6018 319° Northwest  Level FlightAware Approximate
Sun 01:07:00 PM 10.8016 122.5220 319° Northwest  Level FlightAware Approximate
Sun 01:08:00 PM 10.8903 122.4403 317° Northwest  Level FlightAware Approximate
Sun 01:09:00 PM 10.9781 122.3575 317° Northwest  Level FlightAware Approximate
Sun 01:10:00 PM 11.0659 122.2746 317° Northwest  Level FlightAware Approximate
Sun 01:11:00 PM 11.1536 122.1917 317° Northwest  Level FlightAware Approximate
Sun 01:12:00 PM 11.2413 122.1087 317° Northwest  Level FlightAware Approximate
Sun 01:13:00 PM 11.3290 122.0256 317° Northwest  Level FlightAware Approximate
Sun 01:14:00 PM 11.4166 121.9425 317° Northwest  Level FlightAware Approximate
Sun 01:15:00 PM 11.5042 121.8594 317° Northwest  Level FlightAware Approximate
Sun 01:16:00 PM 11.5919 121.7762 317° Northwest  Level FlightAware Approximate
Sun 01:17:00 PM 11.6794 121.6929 317° Northwest  Level FlightAware Approximate
Sun 01:18:00 PM 11.7670 121.6096 317° Northwest  Level FlightAware Approximate
Sun 01:19:00 PM 11.8545 121.5263 317° Northwest  Level FlightAware Approximate
Sun 01:20:00 PM 11.9420 121.4429 317° Northwest  Level FlightAware Approximate
Sun 01:21:00 PM 12.0295 121.3594 317° Northwest  Level FlightAware Approximate
Sun 01:22:00 PM 12.1170 121.2759 317° Northwest  Level FlightAware Approximate
Sun 01:23:00 PM 12.2044 121.1923 317° Northwest  Level FlightAware Approximate
Sun 01:24:00 PM 12.2918 121.1087 317° Northwest  Level FlightAware Approximate
Sun 01:25:00 PM 12.3824 121.0293 329° Northwest  Level FlightAware Approximate
Sun 01:26:00 PM 12.4846 120.9657 329° Northwest  Level FlightAware Approximate
Sun 01:27:00 PM 12.5869 120.9020 329° Northwest  Level FlightAware Approximate
Sun 01:28:00 PM 12.6891 120.8382 329° Northwest  Level FlightAware Approximate
Sun 01:29:00 PM 12.7913 120.7744 329° Northwest  Level FlightAware Approximate
Sun 01:30:00 PM 12.8935 120.7105 329° Northwest  Level FlightAware Approximate
Sun 01:31:00 PM 12.9957 120.6466 329° Northwest  Level FlightAware Approximate
Sun 01:32:00 PM 13.0978 120.5827 329° Northwest  Level FlightAware Approximate
Sun 01:33:00 PM 13.2000 120.5186 329° Northwest  Level FlightAware Approximate
Sun 01:34:00 PM 13.3021 120.4546 329° Northwest  Level FlightAware Approximate
Sun 01:35:00 PM 13.4042 120.3904 329° Northwest  Level FlightAware Approximate
Sun 01:36:00 PM 13.5063 120.3263 329° Northwest  Level FlightAware Approximate
Sun 01:37:00 PM 13.6083 120.2620 329° Northwest  Level FlightAware Approximate
Sun 01:38:00 PM 13.7104 120.1977 329° Northwest  Level FlightAware Approximate
Sun 01:39:00 PM 13.8124 120.1334 329° Northwest  Level FlightAware Approximate
Sun 01:40:00 PM 13.9027 120.0540 313° West  Level FlightAware Approximate
Sun 01:41:00 PM 13.9848 119.9643 313° West  Level FlightAware Approximate
Sun 01:42:00 PM 14.0669 119.8746 313° West  Level FlightAware Approximate
Sun 01:43:00 PM 14.1489 119.7848 313° West  Level FlightAware Approximate
Sun 01:44:00 PM 14.2309 119.6949 313° West  Level FlightAware Approximate
Sun 01:45:00 PM 14.3128 119.6049 313° West  Level FlightAware Approximate
Sun 01:46:00 PM 14.3948 119.5149 313° West  Level FlightAware Approximate
Sun 01:47:00 PM 14.4767 119.4248 313° West  Level FlightAware Approximate
Sun 01:48:00 PM 14.5585 119.3346 313° West  Level FlightAware Approximate
Sun 01:49:00 PM 14.6404 119.2444 313° West  Level FlightAware Approximate
Sun 01:50:00 PM 14.7221 119.1541 313° West  Level FlightAware Approximate
Sun 01:51:00 PM 14.8039 119.0638 313° West  Level FlightAware Approximate
Sun 01:52:00 PM 14.8856 118.9733 313° West  Level FlightAware Approximate
Sun 01:53:00 PM 14.9673 118.8828 313° West  Level FlightAware Approximate
Sun 01:54:00 PM 15.0490 118.7923 313° West  Level FlightAware Approximate
Sun 01:55:00 PM 15.1306 118.7016 313° West  Level FlightAware Approximate
Sun 01:56:00 PM 15.2121 118.6109 313° West  Level FlightAware Approximate
Sun 01:57:00 PM 15.2937 118.5201 313° West  Level FlightAware Approximate
Sun 01:58:00 PM 15.3752 118.4293 313° West  Level FlightAware Approximate
Sun 01:59:00 PM 15.4566 118.3383 313° West  Level FlightAware Approximate
Sun 02:00:00 PM 15.5381 118.2474 313° West  Level FlightAware Approximate
Sun 02:01:00 PM 15.6195 118.1563 313° West  Level FlightAware Approximate
Sun 02:02:00 PM 15.7008 118.0652 313° West  Level FlightAware Approximate
Sun 02:03:00 PM 15.7821 117.9740 313° West  Level FlightAware Approximate
Sun 02:04:00 PM 15.8634 117.8827 313° West  Level FlightAware Approximate
Sun 02:05:00 PM 15.9447 117.7913 313° West  Level FlightAware Approximate
Sun 02:06:00 PM 16.0259 117.6999 313° West  Level FlightAware Approximate
Sun 02:07:00 PM 16.1070 117.6084 313° West  Level FlightAware Approximate
Sun 02:08:00 PM 16.1881 117.5168 313° West  Level FlightAware Approximate
Sun 02:09:00 PM 16.2692 117.4252 313° West  Level FlightAware Approximate
Sun 02:10:00 PM 16.3503 117.3334 313° West  Level FlightAware Approximate
Sun 02:11:00 PM 16.4313 117.2416 313° West  Level FlightAware Approximate
Sun 02:12:00 PM 16.5282 117.1716 333° Northwest  Level FlightAware Approximate
Sun 02:13:00 PM 16.6348 117.1149 333° Northwest  Level FlightAware Approximate
Sun 02:14:00 PM 16.7413 117.0581 333° Northwest  Level FlightAware Approximate
Sun 02:15:00 PM 16.8479 117.0012 333° Northwest  Level FlightAware Approximate
Sun 02:16:00 PM 16.9545 116.9443 333° Northwest  Level FlightAware Approximate
Sun 02:17:00 PM 17.0610 116.8873 333° Northwest  Level FlightAware Approximate
Sun 02:18:00 PM 17.1675 116.8303 333° Northwest  Level FlightAware Approximate
Sun 02:18:02 PM 20.9270 114.0580 333° Northwest 457 526 20,700  Level FlightAware ADS-B
Sun 02:18:37 PM 20.9710 113.9920 306° West 454 522 20,300 -640 Descending FlightAware ADS-B
Sun 02:19:17 PM 21.0250 113.9150 307° West 448 516 19,900 -282 Descending FlightAware ADS-B
Sun 02:20:02 PM 21.0730 113.8430 306° West 448 516 19,900  Level FlightAware ADS-B
Sun 02:20:32 PM 21.1050 113.7970 307° West 448 516 19,900  Level FlightAware ADS-B
Sun 02:21:12 PM 21.1460 113.7360 306° West 448 516 19,900  Level FlightAware ADS-B
Sun 02:21:42 PM 21.1770 113.6900 306° West 448 516 19,900  Level FlightAware ADS-B
Sun 02:22:22 PM 21.2180 113.6290 306° West 448 516 19,900  Level FlightAware ADS-B
Sun 02:23:12 PM 21.2700 113.5530 306° West 448 516 19,900 -792 Level FlightAware ADS-B
Sun 02:25:00 PM 21.4822 113.5929 10° North  Level Estimated
Sun 02:26:00 PM 21.6000 113.6151 10° North  Level Estimated
Sun 02:27:00 PM 21.7179 113.6373 10° North  Level Estimated
Sun 02:28:00 PM 21.8358 113.6596 10° North  Level Estimated
Sun 02:29:00 PM 21.9536 113.6819 10° North  Level Estimated
Sun 02:30:00 PM 22.0715 113.7042 10° North  Level Estimated
Sun 02:31:00 PM 22.1893 113.7266 10° North  Level Estimated
Sun 02:32:00 PM 22.3072 113.7490 10° North  Level Estimated
Sun 02:33:00 PM 22.4250 113.7714 10° North  Level Estimated
Sun 02:34:00 PM 22.5429 113.7939 10° North  Level Estimated
Sun 02:34:22 PM 22.3540 113.3730 10° North 360 414 10,400  Level FlightAware ADS-B
Sun 02:35:07 PM 22.4230 113.4010 21° North 327 376 9,700 -1,000 Descending FlightAware ADS-B
Sun 02:35:22 PM 22.4430 113.4100 23° Northeast 319 367 9,400 -933 Descending FlightAware ADS-B
Sun 02:35:52 PM 22.4820 113.4260 21° North 301 346 9,000 -933 Descending FlightAware ADS-B
Sun 02:36:07 PM 22.5030 113.4350 22° Northeast 294 338 8,700 -1,200 Descending FlightAware ADS-B
Sun 02:36:22 PM 22.5220 113.4430 21° North 293 337 8,400 -1,371 Descending FlightAware ADS-B
Sun 02:36:42 PM 22.5470 113.4530 20° North 290 334 7,900 -1,467 Descending FlightAware ADS-B
Sun 02:37:07 PM 22.5790 113.4670 22° Northeast 287 330 7,300 -1,333 Descending FlightAware ADS-B
Sun 02:37:27 PM 22.6040 113.4770 20° North 284 327 6,900 -1,333 Descending FlightAware ADS-B
Sun 02:37:52 PM 22.6330 113.4890 21° North 281 323 6,300 -1,400 Descending FlightAware ADS-B
Sun 02:38:27 PM 22.6770 113.5070 21° North 277 319 5,500 -1,100 Descending FlightAware ADS-B
Sun 02:38:52 PM 22.7050 113.5190 22° Northeast 265 305 5,200 -600 Descending FlightAware ADS-B
Sun 02:39:17 PM 22.7340 113.5310 21° North 252 290 5,000 -600 Descending FlightAware ADS-B
Sun 02:39:32 PM 22.7490 113.5380 23° Northeast 244 281 4,800 -800 Descending FlightAware ADS-B
Sun 02:40:02 PM 22.7800 113.5510 21° North 230 265 4,400 -667 Descending FlightAware ADS-B
Sun 02:40:17 PM 22.7940 113.5570 22° Northeast 224 258 4,300 -720 Descending FlightAware ADS-B
Sun 02:40:52 PM 22.8280 113.5720 22° Northeast 215 247 3,800 -960 Descending FlightAware ADS-B
Sun 02:41:07 PM 22.8380 113.5840 48° Northeast 211 243 3,500 -960 Descending FlightAware ADS-B
Sun 02:41:42 PM 22.8520 113.6160 65° Northeast 204 235 3,000 -840 Descending FlightAware ADS-B
Sun 02:41:57 PM 22.8590 113.6320 65° Northeast 203 234 2,800 -900 Descending FlightAware ADS-B
Sun 02:42:22 PM 22.8660 113.6540 71° East 201 231 2,400 -600 Descending FlightAware ADS-B
Sun 02:42:47 PM 22.8540 113.6750 122° Southeast 195 224 2,300 -120 Descending FlightAware ADS-B
Sun 02:43:12 PM 22.8350 113.6860 152° Southeast 190 219 2,300  Level FlightAware ADS-B
Sun 02:43:32 PM 22.8200 113.6940 154° Southeast 191 220 2,300  Level FlightAware ADS-B
Sun 02:43:57 PM 22.7990 113.7050 154° Southeast 191 220 2,300  Level FlightAware ADS-B
Sun 02:44:32 PM 22.7720 113.7200 153° Southeast 170 196 2,300  Level FlightAware ADS-B
Sun 02:44:47 PM 22.7610 113.7260 153° Southeast 160 184 2,300 -655 Level FlightAware ADS-B
Sun 02:45:27 PM 22.7360 113.7400 153° Southeast 152 175 1,700 -738 Descending FlightAware ADS-B
Sun 02:45:52 PM 22.7210 113.7480 154° Southeast 137 158 1,500 -655 Descending FlightAware ADS-B
Sun 02:46:22 PM 22.7040 113.7580 152° Southeast 137 158 1,100 -764 Descending FlightAware ADS-B
Sun 02:46:47 PM 22.6890 113.7660 154° Southeast 139 160 800 -655 Descending FlightAware ADS-B
Sun 02:47:17 PM 22.6720 113.7750 154° Southeast 138 159 500 -655 Descending FlightAware ADS-B
Sun 02:47:42 PM 22.6580 113.7830 152° Southeast 138 159 200 -720 Descending FlightAware ADS-B
Sun 02:48:02 PM 22.6470 113.7890 153° Southeast 120 138 -600 Descending FlightAware ADS-B

Login

Don't have an account? Register now (free) for customized features, flight alerts, and more!